This is the latest recevied weather packets stored in our database for station/object KG2V. If no packets are shown the sender has not sent any weather packets the latest 10 day(s).
| Time | Temp. | Humidity | Pressure | Rain* | Wind** | Luminosity | Snow |
|---|---|---|---|---|---|---|---|
| 1777487060 | 9.44° C | 96% | 1004.8 hPa | 6.1 mm | - | 65 W/m² | - |
| 1777486755 | 9.44° C | 96% | 1004.7 hPa | 6.1 mm | - | 47 W/m² | - |
| 1777486454 | 9.44° C | 96% | 1005 hPa | 3.05 mm | - | 35 W/m² | - |
| 1777486151 | 10° C | 96% | 1005.3 hPa | 1.27 mm | - | 39 W/m² | - |
| 1777485848 | 9.44° C | 95% | 1005 hPa | 1.27 mm | - | 49 W/m² | - |
| 1777485543 | 10° C | 95% | 1005.3 hPa | 1.78 mm | - | 69 W/m² | - |
| 1777485240 | 10° C | 95% | 1005.3 hPa | 3.05 mm | - | 53 W/m² | - |
| 1777484936 | 10° C | 94% | 1005.5 hPa | 3.05 mm | - | 67 W/m² | - |
| 1777484633 | 10° C | 94% | 1005.3 hPa | 3.05 mm | - | 108 W/m² | - |
| 1777484330 | 10° C | 93% | 1005.6 hPa | 3.05 mm | - | 34 W/m² | - |
| 1777484025 | 10° C | 93% | 1005.5 hPa | 1.78 mm | - | 33 W/m² | - |
| 1777483722 | 10.56° C | 92% | 1005.7 hPa | 0 mm | - | 17 W/m² | - |
| 1777483418 | 10.56° C | 92% | 1005.8 hPa | 1.78 mm | - | 21 W/m² | - |
| 1777483114 | 10.56° C | 91% | 1005 hPa | 1.78 mm | - | 140 W/m² | - |
| 1777482811 | 10.56° C | 90% | 1005 hPa | 0 mm | - | 107 W/m² | - |
| 1777482507 | 10.56° C | 89% | 1005.1 hPa | 0 mm | - | 185 W/m² | - |
| 1777482204 | 10.56° C | 88% | 1005.5 hPa | 0 mm | - | 108 W/m² | - |
| 1777481901 | 10.56° C | 88% | 1005.6 hPa | 0 mm | - | 76 W/m² | - |
| 1777481599 | 10.56° C | 88% | 1005.9 hPa | 0 mm | - | 41 W/m² | - |
| 1777481296 | 10.56° C | 88% | 1006 hPa | 0 mm | - | 31 W/m² | - |
| 1777480992 | 10.56° C | 88% | 1006 hPa | 0 mm | - | 28 W/m² | - |
| 1777480689 | 10.56° C | 87% | 1006.2 hPa | 0 mm | - | 35 W/m² | - |
| 1777480386 | 11.11° C | 87% | 1006.2 hPa | 0 mm | - | 33 W/m² | - |
| 1777480081 | 11.11° C | 86% | 1005.9 hPa | 0 mm | - | 42 W/m² | - |
| 1777479778 | 11.11° C | 86% | 1006 hPa | 0 mm | - | 88 W/m² | - |
* Rain latest hour (hover to see other rain measurements)
** Current wind speed in m/s (hover to see current wind gust speed)